Bradenton Beach, FL

12:08 AM EST on December 25, 2014 (GMT -0500)
Anna Maria Island | Change Station
CLOSE
Current Station
Personal Weather Station
Location: Anna Maria, FL
Elevation: 2 ft
Nearby Weather Stations

Elev 2 ft 27.53 °N, 82.73 °W | Updated 5 seconds ago

Overcast
Overcast
67.6 °F
Feels Like 67.6 °F
N
2.5
Wind Variable Wind from NW
Gusts 4.9 mph

Today
High -- | Low -- °F
--% Chance of Precip.
Yesterday
High -- | Low -- °F
Precip. -- in
7:18 AM 5:43 PM
Waxing Crescent, 13% visible
Pressure 29.98 in
Visibility 10.0 miles
Clouds Mostly Cloudy 5500 ft
Dew Point 65 °F
Humidity 90%
Rainfall 0.00 in
Snow Depth Not available.
UV 0.0 out of 12
Pollen .80 out of 12
Air Quality Not available.
Flu Activity Not available.
METAR KSRQ 250453Z 31007KT 10SM BKN055 19/16 A2998 RMK AO2 SLP150 T01890156 402670189

More Conditions Fewer Conditions

Pressure 29.98 in
Visibility 10.0 miles
Clouds Mostly Cloudy 5500 ft
Dew Point 65 °F
Humidity 90%
Rainfall 0.00 in
Snow Depth Not available.
UV 0.0 out of 12
Pollen .80 out of 12
Air Quality Not available.
Flu Activity Not available.
METAR KSRQ 250453Z 31007KT 10SM BKN055 19/16 A2998 RMK AO2 SLP150 T01890156 402670189

More Conditions Fewer Conditions

10-Day Weather Forecast

Almanac

Astronomy

Dec. 25, 2014 Rise Set
Actual Time
Civil Twilight
Nautical Twilight
Astronomical Twilight
Moon
Length of Visible Light
Length of Day
Tomorrow will be .
, % of the Moon is Illuminated

Today's Extremes

State Highs State Lows

Community

WunderPhotos

Upload Photos

1,780,243 photos uploaded!

WunderBlogs® & News

Nearby

Air Quality

  Air Quality AQ Index Pollutant
Not available.

Snow Depth

Station Depth Elevation

Earthquake Activity

City Distance Mag. Time & Date
Minimum magnitude displayed is 2.5.

Coastal Water Temperatures

Place Temperature

Nearby Weather Stations